Time;durP1;ratioP1;P1;durP2;ratioP2;P2;SDS_P1;SDS_P2;PMS_P1;PMS_P2;Temp;Humidity;BMP_temperature;BMP_pressure;BME280_temperature;BME280_humidity;BME280_pressure;Samples;Min_cycle;Max_cycle;Signal;HPM_P1;HPM_P2
2023/05/24 06:39:01;;;;;;;;;4.00;4.00;;;;;;;;6282542;22;46486;-72
2023/05/24 06:41:27;;;;;;;;;8.00;6.50;;;;;;;;6369327;22;45439;-72
2023/05/24 06:43:52;;;;;;;;;4.50;4.00;;;;;;;;6369394;22;45356;-73
2023/05/24 06:46:17;;;;;;;;;6.00;4.75;;;;;;;;6371517;22;45510;-73
2023/05/24 06:48:42;;;;;;;;;6.75;5.50;;;;;;;;6371797;22;45401;-73
2023/05/24 06:51:07;;;;;;;;;12.00;6.25;;;;;;;;6372128;22;45244;-72
2023/05/24 06:53:33;;;;;;;;;5.50;3.00;;;;;;;;6371366;22;45360;-73
2023/05/24 06:55:58;;;;;;;;;8.00;5.00;;;;;;;;6369840;22;45245;-72
2023/05/24 06:58:23;;;;;;;;;5.75;4.50;;;;;;;;6370382;22;45361;-72
2023/05/24 07:00:49;;;;;;;;;6.50;5.75;;;;;;;;6371158;22;45403;-72
2023/05/24 07:03:14;;;;;;;;;10.00;7.00;;;;;;;;6372336;22;45302;-72
2023/05/24 07:05:39;;;;;;;;;4.00;3.33;;;;;;;;6372624;22;45254;-72
2023/05/24 07:08:05;;;;;;;;;11.67;8.33;;;;;;;;6374809;22;45030;-73
2023/05/24 07:10:30;;;;;;;;;6.33;6.00;;;;;;;;6375010;22;45085;-72
2023/05/24 07:12:56;;;;;;;;;7.67;6.00;;;;;;;;6372396;22;45412;-72
2023/05/24 07:15:21;;;;;;;;;6.67;4.00;;;;;;;;6372054;22;46615;-72
2023/05/24 07:17:47;;;;;;;;;7.00;6.00;;;;;;;;6371945;22;45252;-73
2023/05/24 07:20:12;;;;;;;;;7.00;6.00;;;;;;;;6371430;22;45092;-73
2023/05/24 07:22:37;;;;;;;;;9.00;6.00;;;;;;;;6371912;22;45439;-74
2023/05/24 07:25:04;;;;;;;;;7.00;4.00;;;;;;;;6371366;22;45217;-74
2023/05/24 07:27:29;;;;;;;;;8.67;6.00;;;;;;;;6371476;22;45412;-74
2023/05/24 07:29:54;;;;;;;;;7.33;5.00;;;;;;;;6371881;22;44746;-73
2023/05/24 07:32:20;;;;;;;;;8.33;6.33;;;;;;;;6372680;22;45433;-74
2023/05/24 07:34:45;;;;;;;;;6.33;6.00;;;;;;;;6371949;22;45173;-74
2023/05/24 07:37:10;;;;;;;;;8.33;4.67;;;;;;;;6371798;22;45290;-74
2023/05/24 07:39:36;;;;;;;;;9.00;6.33;;;;;;;;6342901;22;45397;-75
2023/05/24 07:42:02;;;;;;;;;5.67;4.67;;;;;;;;6372163;22;46289;-73
2023/05/24 07:44:28;;;;;;;;;11.33;5.67;;;;;;;;6372857;22;45451;-74
2023/05/24 07:46:54;;;;;;;;;9.33;4.67;;;;;;;;6374081;22;45203;-74
2023/05/24 07:49:19;;;;;;;;;7.00;3.33;;;;;;;;6373533;22;45225;-75
2023/05/24 07:51:44;;;;;;;;;7.00;5.00;;;;;;;;6375055;22;45163;-73
2023/05/24 07:54:09;;;;;;;;;3.67;3.67;;;;;;;;6372284;22;45275;-74
2023/05/24 07:56:35;;;;;;;;;4.00;3.33;;;;;;;;6372112;22;45144;-74
2023/05/24 07:59:03;;;;;;;;;4.67;3.33;;;;;;;;6371690;22;45250;-74
2023/05/24 08:01:33;;;;;;;;;6.33;4.33;;;;;;;;6371336;22;45152;-74
2023/05/24 08:03:58;;;;;;;;;4.33;4.00;;;;;;;;6371145;22;45425;-76
2023/05/24 08:06:23;;;;;;;;;7.33;6.67;;;;;;;;6371823;22;45280;-75
2023/05/24 08:08:49;;;;;;;;;4.00;4.00;;;;;;;;6370662;22;45434;-75
2023/05/24 08:11:14;;;;;;;;;7.00;5.00;;;;;;;;6369871;22;45465;-74
2023/05/24 08:13:39;;;;;;;;;4.67;4.33;;;;;;;;6371207;22;45160;-74
2023/05/24 08:16:04;;;;;;;;;5.33;4.00;;;;;;;;6372140;22;45215;-75
2023/05/24 08:18:30;;;;;;;;;6.33;3.33;;;;;;;;6371902;22;45189;-74
2023/05/24 08:20:56;;;;;;;;;3.67;2.67;;;;;;;;6371600;22;45412;-75
2023/05/24 08:23:21;;;;;;;;;5.67;3.00;;;;;;;;6369812;22;46986;-75
2023/05/24 08:25:46;;;;;;;;;4.67;3.67;;;;;;;;6371999;22;45227;-75
2023/05/24 08:28:11;;;;;;;;;7.00;6.00;;;;;;;;6374825;22;45426;-75
2023/05/24 08:30:37;;;;;;;;;4.67;3.00;;;;;;;;6374928;22;45475;-75
2023/05/24 08:33:02;;;;;;;;;7.67;3.00;;;;;;;;6375817;22;46082;-75
2023/05/24 08:35:27;;;;;;;;;4.00;3.00;;;;;;;;6376691;22;45252;-75
2023/05/24 08:37:53;;;;;;;;;6.00;3.67;;;;;;;;6374026;22;45709;-74
2023/05/24 08:40:18;;;;;;;;;5.00;5.00;;;;;;;;6370979;22;45324;-75
2023/05/24 08:42:44;;;;;;;;;5.00;2.67;;;;;;;;6371945;22;45282;-75
2023/05/24 08:45:13;;;;;;;;;2.67;2.67;;;;;;;;6371442;22;45242;-75
2023/05/24 08:47:38;;;;;;;;;4.67;2.00;;;;;;;;6371741;22;45293;-75
2023/05/24 08:50:05;;;;;;;;;6.67;4.00;;;;;;;;6371466;22;45303;-75
2023/05/24 08:52:31;;;;;;;;;2.33;1.33;;;;;;;;6370195;22;45419;-74
2023/05/24 08:54:57;;;;;;;;;5.33;3.67;;;;;;;;6369734;22;45230;-74
2023/05/24 08:57:23;;;;;;;;;5.00;4.00;;;;;;;;6372376;22;45269;-75
2023/05/24 08:59:48;;;;;;;;;3.00;3.00;;;;;;;;6369397;22;45555;-74
2023/05/24 09:02:15;;;;;;;;;5.00;2.67;;;;;;;;6371996;22;45146;-74
2023/05/24 09:04:43;;;;;;;;;5.67;2.00;;;;;;;;6370663;22;45337;-74
2023/05/24 09:07:08;;;;;;;;;4.00;4.00;;;;;;;;6371729;22;44748;-74
2023/05/24 09:09:33;;;;;;;;;3.33;2.00;;;;;;;;6371908;22;45268;-75
2023/05/24 09:12:00;;;;;;;;;3.67;1.67;;;;;;;;6374347;22;46178;-74
2023/05/24 09:14:26;;;;;;;;;4.00;3.00;;;;;;;;6371722;22;45265;-74
2023/05/24 09:16:51;;;;;;;;;2.00;2.00;;;;;;;;6375426;22;45209;-74
2023/05/24 09:19:18;;;;;;;;;3.33;2.00;;;;;;;;6373230;22;45214;-74
2023/05/24 09:21:43;;;;;;;;;2.00;2.00;;;;;;;;6371362;22;46559;-74
2023/05/24 09:24:10;;;;;;;;;4.00;3.00;;;;;;;;6371222;22;45164;-74
2023/05/24 09:26:35;;;;;;;;;2.00;2.00;;;;;;;;6370407;22;45583;-74
2023/05/24 09:29:00;;;;;;;;;3.75;1.75;;;;;;;;6371306;22;45377;-74
2023/05/24 09:31:36;;;;;;;;;3.75;2.00;;;;;;;;6371563;22;45504;-74
2023/05/24 09:34:01;;;;;;;;;4.25;3.00;;;;;;;;6371471;22;45211;-75
2023/05/24 09:36:31;;;;;;;;;3.25;2.00;;;;;;;;6343122;22;45276;-74
2023/05/24 09:39:08;;;;;;;;;2.00;2.00;;;;;;;;6369008;22;45415;-74
2023/05/24 09:41:33;;;;;;;;;2.00;2.00;;;;;;;;6342575;22;45376;-74
2023/05/24 09:43:58;;;;;;;;;6.50;3.00;;;;;;;;6371110;22;45101;-74
2023/05/24 09:46:23;;;;;;;;;3.00;3.00;;;;;;;;6371245;22;45422;-75
2023/05/24 09:48:54;;;;;;;;;2.00;1.25;;;;;;;;6369448;22;45194;-75
2023/05/24 09:51:20;;;;;;;;;4.00;1.00;;;;;;;;6343081;22;45254;-75
2023/05/24 09:53:48;;;;;;;;;2.25;0.75;;;;;;;;6374212;22;45159;-76
2023/05/24 09:56:13;;;;;;;;;2.75;2.75;;;;;;;;6373351;22;45232;-74
2023/05/24 09:58:38;;;;;;;;;4.00;3.50;;;;;;;;6372843;22;45238;-78
2023/05/24 10:01:07;;;;;;;;;2.75;2.75;;;;;;;;6374960;22;46644;-73
2023/05/24 10:03:33;;;;;;;;;3.00;2.00;;;;;;;;6343277;22;45269;-75
2023/05/24 10:05:59;;;;;;;;;4.50;2.50;;;;;;;;6371339;22;45262;-75
2023/05/24 10:08:25;;;;;;;;;1.25;1.25;;;;;;;;6369577;22;45270;-75
2023/05/24 10:10:50;;;;;;;;;3.50;3.25;;;;;;;;6371053;22;46057;-75
2023/05/24 10:13:16;;;;;;;;;3.50;3.00;;;;;;;;6371092;22;45143;-75
2023/05/24 10:15:42;;;;;;;;;5.25;4.00;;;;;;;;6370044;22;45321;-75
2023/05/24 10:18:08;;;;;;;;;5.75;3.25;;;;;;;;6372247;22;45377;-75
2023/05/24 10:20:34;;;;;;;;;5.00;4.00;;;;;;;;6343466;22;47227;-75
2023/05/24 10:23:03;;;;;;;;;8.75;4.75;;;;;;;;6370552;22;45302;-75
2023/05/24 10:25:28;;;;;;;;;4.50;1.50;;;;;;;;6371952;22;45211;-75
2023/05/24 10:27:59;;;;;;;;;5.25;3.75;;;;;;;;6342845;22;45266;-75
2023/05/24 10:30:24;;;;;;;;;2.75;2.75;;;;;;;;6372231;22;46139;-75
2023/05/24 10:32:51;;;;;;;;;3.00;3.00;;;;;;;;6372520;22;45320;-80
2023/05/24 10:35:18;;;;;;;;;5.00;4.00;;;;;;;;6374301;22;45242;-79
2023/05/24 10:37:45;;;;;;;;;2.75;2.75;;;;;;;;6376211;22;45281;-77
2023/05/24 10:40:18;;;;;;;;;4.75;4.25;;;;;;;;6374089;22;45151;-79
2023/05/24 10:42:44;;;;;;;;;7.50;5.50;;;;;;;;6376811;22;45245;-75
2023/05/24 10:45:35;;;;;;;;;5.00;4.00;;;;;;;;6373199;22;45367;-74
2023/05/24 10:48:07;;;;;;;;;3.00;1.75;;;;;;;;6363732;22;45269;-74
2023/05/24 10:50:32;;;;;;;;;4.75;3.00;;;;;;;;6372282;22;45327;-73
2023/05/24 10:53:12;;;;;;;;;2.25;2.00;;;;;;;;6372325;22;45163;-73
2023/05/24 10:55:49;;;;;;;;;3.00;2.00;;;;;;;;6372222;22;45245;-76
2023/05/24 10:58:14;;;;;;;;;2.00;2.00;;;;;;;;6372424;22;45200;-75
2023/05/24 11:00:43;;;;;;;;;2.00;2.00;;;;;;;;6372127;22;45321;-75
2023/05/24 11:03:09;;;;;;;;;1.75;1.50;;;;;;;;6371490;22;45147;-77
2023/05/24 11:05:35;;;;;;;;;3.00;1.50;;;;;;;;6372536;22;45246;-78
2023/05/24 11:08:00;;;;;;;;;3.25;1.75;;;;;;;;6371564;22;45724;-76
2023/05/24 11:10:29;;;;;;;;;1.00;1.00;;;;;;;;6371996;22;46122;-75
2023/05/24 11:13:01;;;;;;;;;3.40;1.80;;;;;;;;6371361;22;45215;-76
2023/05/24 11:15:28;;;;;;;;;2.00;2.00;;;;;;;;6370902;22;45245;-76
2023/05/24 11:18:05;;;;;;;;;2.00;2.00;;;;;;;;6371866;22;45839;-75
2023/05/24 11:20:31;;;;;;;;;3.25;2.00;;;;;;;;6372178;22;45226;-75
2023/05/24 11:22:58;;;;;;;;;2.00;1.00;;;;;;;;6371857;22;45323;-75
2023/05/24 11:25:24;;;;;;;;;2.25;2.25;;;;;;;;6372839;22;45311;-76
2023/05/24 11:27:49;;;;;;;;;3.25;2.00;;;;;;;;6372759;22;45431;-74
2023/05/24 11:30:14;;;;;;;;;1.75;1.75;;;;;;;;6371559;22;45508;-76
2023/05/24 11:32:41;;;;;;;;;2.50;1.25;;;;;;;;6372427;22;45301;-75
2023/05/24 11:35:09;;;;;;;;;2.00;2.00;;;;;;;;6372046;22;45333;-75
2023/05/24 11:37:35;;;;;;;;;4.25;2.00;;;;;;;;6370179;22;45537;-75
2023/05/24 11:40:04;;;;;;;;;4.50;2.75;;;;;;;;6370702;22;45372;-74
2023/05/24 11:42:30;;;;;;;;;3.20;1.80;;;;;;;;6371514;22;45236;-74
2023/05/24 11:44:55;;;;;;;;;2.00;2.00;;;;;;;;6343216;22;45301;-72
2023/05/24 11:47:23;;;;;;;;;2.75;2.00;;;;;;;;6371612;22;45596;-74
2023/05/24 11:49:49;;;;;;;;;0.80;0.80;;;;;;;;6369929;22;45638;-74
2023/05/24 11:52:14;;;;;;;;;4.00;3.00;;;;;;;;6370785;22;45238;-74
2023/05/24 11:54:40;;;;;;;;;2.75;1.00;;;;;;;;6371083;22;45228;-75
2023/05/24 11:57:05;;;;;;;;;5.00;3.00;;;;;;;;6372169;22;45219;-74
2023/05/24 11:59:30;;;;;;;;;4.00;2.25;;;;;;;;6371788;22;45383;-74
2023/05/24 12:02:13;;;;;;;;;3.75;2.50;;;;;;;;6372584;22;45145;-74
2023/05/24 12:04:38;;;;;;;;;6.75;4.75;;;;;;;;6374410;22;45226;-74
2023/05/24 12:07:09;;;;;;;;;5.75;3.00;;;;;;;;6374705;22;45279;-74
2023/05/24 12:09:34;;;;;;;;;5.40;2.00;;;;;;;;6375909;22;45818;-76
2023/05/24 12:12:00;;;;;;;;;3.75;2.75;;;;;;;;6346529;22;45123;-75
2023/05/24 12:14:27;;;;;;;;;3.00;3.00;;;;;;;;6372618;22;45375;-75
2023/05/24 12:16:54;;;;;;;;;2.25;2.25;;;;;;;;6372416;22;45183;-74
2023/05/24 12:19:21;;;;;;;;;3.20;2.00;;;;;;;;6371772;22;45239;-74
2023/05/24 12:21:46;;;;;;;;;1.80;1.80;;;;;;;;6371964;22;45493;-74
2023/05/24 12:24:18;;;;;;;;;3.00;2.00;;;;;;;;6371262;22;45435;-74
2023/05/24 12:26:44;;;;;;;;;1.60;1.60;;;;;;;;6370739;22;45364;-74
2023/05/24 12:29:10;;;;;;;;;7.50;3.75;;;;;;;;6371774;22;45219;-74
2023/05/24 12:31:36;;;;;;;;;5.00;2.20;;;;;;;;6371782;22;45507;-74
2023/05/24 12:34:02;;;;;;;;;2.75;2.25;;;;;;;;6372329;22;45249;-76
2023/05/24 12:36:28;;;;;;;;;2.60;2.00;;;;;;;;6372488;22;45175;-74
2023/05/24 12:38:55;;;;;;;;;4.25;3.00;;;;;;;;6370589;22;45837;-73
2023/05/24 12:41:21;;;;;;;;;4.00;4.00;;;;;;;;6372546;22;45223;-74
2023/05/24 12:43:46;;;;;;;;;3.00;2.50;;;;;;;;6371933;22;45159;-74
2023/05/24 12:46:12;;;;;;;;;2.50;2.50;;;;;;;;6373346;22;45209;-75
2023/05/24 12:48:37;;;;;;;;;3.00;3.00;;;;;;;;6372753;22;45611;-72
2023/05/24 12:51:02;;;;;;;;;3.25;2.00;;;;;;;;6372360;22;45266;-74
2023/05/24 12:53:27;;;;;;;;;2.50;2.50;;;;;;;;6370697;22;45372;-74
2023/05/24 12:55:54;;;;;;;;;1.75;1.25;;;;;;;;6373548;22;45435;-74
2023/05/24 12:58:20;;;;;;;;;1.20;1.20;;;;;;;;6371015;22;45334;-74
2023/05/24 13:00:48;;;;;;;;;2.25;2.25;;;;;;;;6372121;22;45289;-74
2023/05/24 13:03:14;;;;;;;;;4.20;2.80;;;;;;;;6371704;22;45149;-74
2023/05/24 13:05:39;;;;;;;;;2.25;2.25;;;;;;;;6371823;22;45129;-74
2023/05/24 13:08:04;;;;;;;;;1.25;0.00;;;;;;;;6371163;22;46046;-75
2023/05/24 13:10:29;;;;;;;;;3.25;3.00;;;;;;;;6372016;22;45270;-74
2023/05/24 13:12:55;;;;;;;;;2.50;1.25;;;;;;;;6372359;22;45432;-75
2023/05/24 13:15:22;;;;;;;;;2.80;2.60;;;;;;;;6371455;22;46058;-74
2023/05/24 13:17:48;;;;;;;;;1.60;1.40;;;;;;;;6371363;22;45917;-75
2023/05/24 13:20:13;;;;;;;;;1.50;1.00;;;;;;;;6371684;22;45240;-75
2023/05/24 13:22:38;;;;;;;;;5.00;2.00;;;;;;;;6372369;22;45210;-75
2023/05/24 13:25:04;;;;;;;;;3.50;2.25;;;;;;;;6371528;22;45258;-75
2023/05/24 13:27:30;;;;;;;;;0.60;0.60;;;;;;;;6371672;22;46480;-75
2023/05/24 13:29:55;;;;;;;;;8.00;4.00;;;;;;;;6372720;22;45309;-73
2023/05/24 13:32:21;;;;;;;;;3.00;3.00;;;;;;;;6372978;22;45170;-73
2023/05/24 13:34:46;;;;;;;;;2.75;2.75;;;;;;;;6372966;22;45521;-76
2023/05/24 13:37:11;;;;;;;;;1.00;1.00;;;;;;;;6375248;22;45221;-76
2023/05/24 13:39:37;;;;;;;;;2.25;2.00;;;;;;;;6372400;22;45276;-76
2023/05/24 13:42:02;;;;;;;;;4.00;3.00;;;;;;;;6371989;22;45215;-70
2023/05/24 13:44:28;;;;;;;;;5.25;3.00;;;;;;;;6371351;22;45229;-70
2023/05/24 13:46:55;;;;;;;;;2.20;2.20;;;;;;;;6371007;22;46240;-73
2023/05/24 13:49:20;;;;;;;;;3.00;2.25;;;;;;;;6342742;22;45556;-74
2023/05/24 13:51:45;;;;;;;;;1.50;1.50;;;;;;;;6372704;22;45461;-72
2023/05/24 13:54:11;;;;;;;;;3.00;1.25;;;;;;;;6372187;22;45223;-71
2023/05/24 13:56:38;;;;;;;;;2.75;2.75;;;;;;;;6373187;22;45215;-73
2023/05/24 13:59:04;;;;;;;;;1.60;1.20;;;;;;;;6344223;22;45319;-72
2023/05/24 14:01:29;;;;;;;;;1.25;1.25;;;;;;;;6372022;22;45317;-72
2023/05/24 14:03:55;;;;;;;;;3.00;3.00;;;;;;;;6372049;22;45877;-72
2023/05/24 14:06:20;;;;;;;;;2.75;2.75;;;;;;;;6373000;22;46075;-75
2023/05/24 14:08:46;;;;;;;;;2.25;2.25;;;;;;;;6371905;22;45210;-75
2023/05/24 14:11:13;;;;;;;;;1.75;1.75;;;;;;;;6373337;22;45148;-73
2023/05/24 14:13:38;;;;;;;;;0.00;0.00;;;;;;;;6373060;22;45539;-74
2023/05/24 14:16:03;;;;;;;;;3.50;3.50;;;;;;;;6344685;22;46621;-72
2023/05/24 14:18:29;;;;;;;;;3.50;3.50;;;;;;;;6374172;22;45233;-75
2023/05/24 14:20:54;;;;;;;;;3.50;2.75;;;;;;;;6375381;22;45501;-72
2023/05/24 14:23:20;;;;;;;;;5.00;3.25;;;;;;;;6372822;22;45400;-74
2023/05/24 14:25:45;;;;;;;;;4.00;4.00;;;;;;;;6372901;22;45463;-73
2023/05/24 14:28:11;;;;;;;;;2.50;2.50;;;;;;;;6372572;22;45312;-72
2023/05/24 14:30:37;;;;;;;;;4.00;4.00;;;;;;;;6373231;22;45203;-72
2023/05/24 14:33:02;;;;;;;;;1.25;1.25;;;;;;;;6372261;22;45183;-72
2023/05/24 14:35:27;;;;;;;;;2.25;2.25;;;;;;;;6371340;22;45220;-72
2023/05/24 14:37:53;;;;;;;;;4.75;3.00;;;;;;;;6343538;22;45252;-72
2023/05/24 14:40:18;;;;;;;;;3.00;3.00;;;;;;;;6372061;22;45298;-73
2023/05/24 14:42:43;;;;;;;;;7.25;5.25;;;;;;;;6372963;22;45272;-72
2023/05/24 14:45:09;;;;;;;;;2.75;2.75;;;;;;;;6372435;22;45283;-72
2023/05/24 14:47:34;;;;;;;;;3.00;2.50;;;;;;;;6343648;22;45364;-72
2023/05/24 14:49:59;;;;;;;;;4.50;4.50;;;;;;;;6344171;22;45400;-73
2023/05/24 14:52:25;;;;;;;;;3.50;3.00;;;;;;;;6372832;22;45199;-73
2023/05/24 14:54:50;;;;;;;;;13.75;13.25;;;;;;;;6372104;22;45199;-73
2023/05/24 14:57:15;;;;;;;;;7.50;3.75;;;;;;;;6344301;22;45258;-73
2023/05/24 14:59:40;;;;;;;;;3.25;2.00;;;;;;;;6372654;22;45221;-72
2023/05/24 15:02:06;;;;;;;;;6.25;4.00;;;;;;;;6373044;22;45329;-71
2023/05/24 15:04:31;;;;;;;;;4.00;4.00;;;;;;;;6372114;22;45947;-71
2023/05/24 15:06:57;;;;;;;;;5.75;5.75;;;;;;;;6373204;22;45225;-71
2023/05/24 15:09:22;;;;;;;;;5.25;4.50;;;;;;;;6371616;22;45234;-73
2023/05/24 15:11:47;;;;;;;;;6.00;6.00;;;;;;;;6372467;22;45151;-73
2023/05/24 15:14:13;;;;;;;;;4.75;4.75;;;;;;;;6372384;22;45211;-72
2023/05/24 15:16:38;;;;;;;;;7.00;5.40;;;;;;;;6372814;22;45260;-73
2023/05/24 15:19:04;;;;;;;;;6.75;5.00;;;;;;;;6372307;22;45144;-72
2023/05/24 15:21:29;;;;;;;;;5.00;4.25;;;;;;;;6372727;22;45505;-72
2023/05/24 15:23:54;;;;;;;;;5.50;4.50;;;;;;;;6371840;22;46072;-72
2023/05/24 15:26:20;;;;;;;;;3.75;3.75;;;;;;;;6372708;22;45215;-72
2023/05/24 15:28:45;;;;;;;;;4.00;2.75;;;;;;;;6344003;22;45380;-73
2023/05/24 15:31:10;;;;;;;;;6.00;5.75;;;;;;;;6371648;22;45357;-72
2023/05/24 15:33:36;;;;;;;;;4.75;4.75;;;;;;;;6372307;22;45625;-73
2023/05/24 15:36:04;;;;;;;;;7.50;5.00;;;;;;;;6372645;22;45297;-73
2023/05/24 15:38:29;;;;;;;;;6.50;4.75;;;;;;;;6372458;22;45223;-72
2023/05/24 15:40:55;;;;;;;;;5.00;5.00;;;;;;;;6370175;22;45436;-72
2023/05/24 15:43:20;;;;;;;;;5.00;5.00;;;;;;;;6370599;22;46166;-73
2023/05/24 15:45:45;;;;;;;;;4.25;4.25;;;;;;;;6343746;22;45226;-73
2023/05/24 15:48:11;;;;;;;;;8.50;5.50;;;;;;;;6343639;22;45118;-73
2023/05/24 15:50:37;;;;;;;;;8.75;4.75;;;;;;;;6372581;22;45326;-73
2023/05/24 15:53:02;;;;;;;;;6.50;5.75;;;;;;;;6371974;22;45929;-73
2023/05/24 15:55:27;;;;;;;;;7.50;5.00;;;;;;;;6368735;22;45179;-72
2023/05/24 15:57:52;;;;;;;;;5.00;4.00;;;;;;;;6371947;22;45104;-71
2023/05/24 16:00:18;;;;;;;;;7.00;5.00;;;;;;;;6372126;22;45138;-71
2023/05/24 16:02:43;;;;;;;;;2.00;2.00;;;;;;;;6372094;22;45227;-71
2023/05/24 16:05:08;;;;;;;;;8.00;6.00;;;;;;;;6371849;22;45314;-72
2023/05/24 16:07:34;;;;;;;;;7.25;6.00;;;;;;;;6343576;22;45016;-72
2023/05/24 16:09:59;;;;;;;;;5.25;5.25;;;;;;;;6370872;22;45127;-72
2023/05/24 16:12:24;;;;;;;;;5.50;5.50;;;;;;;;6371042;22;45970;-72
2023/05/24 16:14:50;;;;;;;;;7.00;4.00;;;;;;;;6370843;22;45137;-72
2023/05/24 16:17:16;;;;;;;;;5.50;5.50;;;;;;;;6371749;22;45311;-72
2023/05/24 16:19:41;;;;;;;;;7.25;7.00;;;;;;;;6371847;22;45444;-72
2023/05/24 16:22:06;;;;;;;;;5.00;4.00;;;;;;;;6372482;22;45346;-72
2023/05/24 16:24:32;;;;;;;;;4.00;4.00;;;;;;;;6371737;22;45284;-72
2023/05/24 16:26:57;;;;;;;;;6.25;6.00;;;;;;;;6372559;22;45132;-72
2023/05/24 16:29:22;;;;;;;;;7.00;6.00;;;;;;;;6371819;22;45471;-72
2023/05/24 16:31:47;;;;;;;;;6.33;4.67;;;;;;;;6372450;22;45192;-72
2023/05/24 16:34:13;;;;;;;;;1.33;1.33;;;;;;;;6371628;22;45241;-71
2023/05/24 16:36:38;;;;;;;;;4.00;4.00;;;;;;;;6371960;22;45297;-71
2023/05/24 16:39:03;;;;;;;;;6.00;5.00;;;;;;;;6370353;22;45420;-71
2023/05/24 16:41:33;;;;;;;;;8.00;7.00;;;;;;;;6372281;22;45290;-71
2023/05/24 16:43:59;;;;;;;;;5.00;5.00;;;;;;;;6371612;22;45206;-72
2023/05/24 16:46:24;;;;;;;;;7.00;5.00;;;;;;;;6372156;22;45226;-71
2023/05/24 16:48:49;;;;;;;;;5.33;5.33;;;;;;;;6371579;22;45170;-72
2023/05/24 16:51:15;;;;;;;;;6.67;6.67;;;;;;;;6372120;22;45246;-71
2023/05/24 16:53:40;;;;;;;;;6.00;6.00;;;;;;;;6369750;22;45262;-71
2023/05/24 16:56:05;;;;;;;;;6.00;6.00;;;;;;;;6372672;22;45209;-71
2023/05/24 16:58:30;;;;;;;;;8.33;6.67;;;;;;;;6371748;22;45544;-72
2023/05/24 17:00:56;;;;;;;;;7.33;6.00;;;;;;;;6371885;22;45160;-71
2023/05/24 17:03:26;;;;;;;;;6.00;6.00;;;;;;;;6371769;22;45306;-71
2023/05/24 17:05:52;;;;;;;;;9.00;5.67;;;;;;;;6370715;22;45259;-72
2023/05/24 17:08:17;;;;;;;;;6.67;5.00;;;;;;;;6371277;22;45320;-72
2023/05/24 17:10:42;;;;;;;;;6.00;6.00;;;;;;;;6371063;22;46020;-72
2023/05/24 17:13:08;;;;;;;;;5.00;5.00;;;;;;;;6371689;22;45338;-72
2023/05/24 17:15:33;;;;;;;;;6.00;4.33;;;;;;;;6372258;22;45201;-73
2023/05/24 17:17:58;;;;;;;;;4.33;3.00;;;;;;;;6371476;22;45224;-72
2023/05/24 17:20:23;;;;;;;;;8.00;5.67;;;;;;;;6371922;22;45360;-73
2023/05/24 17:22:48;;;;;;;;;8.33;6.00;;;;;;;;6372166;22;45309;-73
2023/05/24 17:25:13;;;;;;;;;5.00;4.00;;;;;;;;6371861;22;45226;-73
2023/05/24 17:27:39;;;;;;;;;7.33;7.00;;;;;;;;6373298;22;45210;-73
2023/05/24 17:30:05;;;;;;;;;7.67;4.00;;;;;;;;6372930;22;46101;-72
2023/05/24 17:32:30;;;;;;;;;4.67;4.67;;;;;;;;6373238;22;45229;-72
2023/05/24 17:34:55;;;;;;;;;5.33;4.00;;;;;;;;6373096;22;45205;-73
2023/05/24 17:37:21;;;;;;;;;6.33;5.67;;;;;;;;6372959;22;45393;-73
2023/05/24 17:39:50;;;;;;;;;6.00;6.00;;;;;;;;6372222;22;45625;-74
2023/05/24 17:42:16;;;;;;;;;4.00;4.00;;;;;;;;6373030;22;45175;-73
2023/05/24 17:44:41;;;;;;;;;6.67;5.00;;;;;;;;6373462;22;45518;-73
2023/05/24 17:47:06;;;;;;;;;6.00;4.67;;;;;;;;6373308;22;45397;-73
2023/05/24 17:49:31;;;;;;;;;6.67;6.33;;;;;;;;6372550;22;45133;-73
2023/05/24 17:51:57;;;;;;;;;5.67;4.00;;;;;;;;6373883;22;45202;-73
2023/05/24 17:54:22;;;;;;;;;8.67;7.33;;;;;;;;6343226;22;45242;-73
2023/05/24 17:56:47;;;;;;;;;4.33;4.33;;;;;;;;6374332;22;45206;-72
2023/05/24 17:59:13;;;;;;;;;5.33;5.00;;;;;;;;6345184;22;46105;-73
2023/05/24 18:01:38;;;;;;;;;6.00;6.00;;;;;;;;6374117;22;45202;-72
2023/05/24 18:04:03;;;;;;;;;7.67;7.00;;;;;;;;6372524;22;45144;-72
2023/05/24 18:06:28;;;;;;;;;6.67;5.00;;;;;;;;6373318;22;45477;-72
2023/05/24 18:08:56;;;;;;;;;7.00;7.00;;;;;;;;6372562;22;45132;-73
2023/05/24 18:11:22;;;;;;;;;8.33;6.33;;;;;;;;6371542;22;45360;-72
2023/05/24 18:13:47;;;;;;;;;6.00;6.00;;;;;;;;6373218;22;45288;-72
2023/05/24 18:16:12;;;;;;;;;5.33;5.00;;;;;;;;6372769;22;45417;-73
2023/05/24 18:18:38;;;;;;;;;8.00;6.67;;;;;;;;6372604;22;45367;-72
2023/05/24 18:21:03;;;;;;;;;7.33;5.00;;;;;;;;6372950;22;45161;-73
2023/05/24 18:23:29;;;;;;;;;5.00;5.00;;;;;;;;6371963;22;45260;-73
2023/05/24 18:25:55;;;;;;;;;8.00;8.00;;;;;;;;6373070;22;45207;-73
2023/05/24 18:28:20;;;;;;;;;8.00;6.00;;;;;;;;6372260;22;45258;-73
2023/05/24 18:30:45;;;;;;;;;6.67;6.67;;;;;;;;6373258;22;45244;-73
2023/05/24 18:33:11;;;;;;;;;5.67;4.00;;;;;;;;6373024;22;45222;-71
2023/05/24 18:35:36;;;;;;;;;5.00;5.00;;;;;;;;6372637;22;45431;-75
2023/05/24 18:38:02;;;;;;;;;7.67;6.00;;;;;;;;6372633;22;45206;-72
2023/05/24 18:40:27;;;;;;;;;7.67;5.67;;;;;;;;6371934;22;45416;-73
2023/05/24 18:42:52;;;;;;;;;8.00;8.00;;;;;;;;6373012;22;45386;-73
2023/05/24 18:45:18;;;;;;;;;9.00;6.67;;;;;;;;6372067;22;45246;-72
2023/05/24 18:47:43;;;;;;;;;8.00;6.67;;;;;;;;6370116;22;45283;-72
2023/05/24 18:50:08;;;;;;;;;9.00;6.67;;;;;;;;6369549;22;45285;-73
2023/05/24 18:52:34;;;;;;;;;7.33;6.00;;;;;;;;6372395;22;45161;-73
2023/05/24 18:55:00;;;;;;;;;5.00;5.00;;;;;;;;6371594;22;45213;-74
2023/05/24 18:57:25;;;;;;;;;7.00;6.33;;;;;;;;6372523;22;45159;-74
2023/05/24 18:59:50;;;;;;;;;7.67;5.00;;;;;;;;6371287;22;45172;-75
2023/05/24 19:02:16;;;;;;;;;8.00;6.67;;;;;;;;6371939;22;45053;-75
2023/05/24 19:04:46;;;;;;;;;6.00;6.00;;;;;;;;6343198;22;45852;-75
2023/05/24 19:07:12;;;;;;;;;8.00;7.00;;;;;;;;6371088;22;46217;-74
2023/05/24 19:09:37;;;;;;;;;8.67;7.33;;;;;;;;6370710;22;45531;-74
2023/05/24 19:12:03;;;;;;;;;7.67;6.00;;;;;;;;6372807;22;45274;-74
2023/05/24 19:14:29;;;;;;;;;8.00;7.00;;;;;;;;6371965;22;45187;-74
2023/05/24 19:16:55;;;;;;;;;7.33;4.33;;;;;;;;6372085;22;47108;-75
2023/05/24 19:19:20;;;;;;;;;6.00;6.00;;;;;;;;6371135;22;45204;-74
2023/05/24 19:21:45;;;;;;;;;9.33;7.00;;;;;;;;6372336;22;45477;-74
2023/05/24 19:24:10;;;;;;;;;7.67;7.67;;;;;;;;6371245;22;45166;-75
2023/05/24 19:26:36;;;;;;;;;9.67;7.00;;;;;;;;6373807;22;45531;-75
2023/05/24 19:29:01;;;;;;;;;8.33;7.67;;;;;;;;6373129;22;45383;-75
2023/05/24 19:31:26;;;;;;;;;9.33;7.00;;;;;;;;6372881;22;45135;-74
2023/05/24 19:33:52;;;;;;;;;7.67;7.33;;;;;;;;6372403;22;45221;-75
2023/05/24 19:36:18;;;;;;;;;6.00;4.67;;;;;;;;6371511;22;46533;-74
2023/05/24 19:38:44;;;;;;;;;6.67;6.67;;;;;;;;6342418;22;45312;-74
2023/05/24 19:41:09;;;;;;;;;4.67;4.00;;;;;;;;6372690;22;45207;-74
2023/05/24 19:43:34;;;;;;;;;8.67;8.33;;;;;;;;6371511;22;45378;-73
2023/05/24 19:46:00;;;;;;;;;8.67;8.67;;;;;;;;6372519;22;45466;-74
2023/05/24 19:48:25;;;;;;;;;11.00;6.33;;;;;;;;6369850;22;45215;-74
2023/05/24 19:50:51;;;;;;;;;9.00;8.00;;;;;;;;6372596;22;45249;-75
2023/05/24 19:53:16;;;;;;;;;10.67;6.67;;;;;;;;6342479;22;45420;-74
2023/05/24 19:55:42;;;;;;;;;7.00;6.00;;;;;;;;6372678;22;45288;-74
2023/05/24 19:58:07;;;;;;;;;10.00;8.33;;;;;;;;6372839;22;45263;-75
2023/05/24 20:00:32;;;;;;;;;7.67;6.67;;;;;;;;6373297;22;45423;-75
2023/05/24 20:02:58;;;;;;;;;11.33;9.33;;;;;;;;6374491;22;45153;-75
2023/05/24 20:05:23;;;;;;;;;7.00;7.00;;;;;;;;6376262;22;45378;-75
2023/05/24 20:07:48;;;;;;;;;8.67;6.67;;;;;;;;6375476;22;45223;-74
2023/05/24 20:10:13;;;;;;;;;11.67;9.33;;;;;;;;6376151;22;45192;-74
2023/05/24 20:12:39;;;;;;;;;11.33;8.00;;;;;;;;6376124;22;45186;-74
2023/05/24 20:15:08;;;;;;;;;10.00;8.00;;;;;;;;6343955;22;47584;-74
2023/05/24 20:17:33;;;;;;;;;14.00;9.00;;;;;;;;6371870;22;45308;-74
2023/05/24 20:19:59;;;;;;;;;11.00;8.67;;;;;;;;6343636;22;45258;-74
2023/05/24 20:22:24;;;;;;;;;6.00;5.67;;;;;;;;6372465;22;45415;-74
2023/05/24 20:24:49;;;;;;;;;9.33;8.33;;;;;;;;6372231;22;46104;-74
2023/05/24 20:27:14;;;;;;;;;8.67;8.33;;;;;;;;6370806;22;45390;-75
2023/05/24 20:29:40;;;;;;;;;8.67;8.00;;;;;;;;6372423;22;45526;-75
2023/05/24 20:32:05;;;;;;;;;7.67;7.00;;;;;;;;6373065;22;45282;-75
2023/05/24 20:34:31;;;;;;;;;8.33;6.33;;;;;;;;6371748;22;45219;-75
2023/05/24 20:36:56;;;;;;;;;7.33;7.33;;;;;;;;6371114;22;45714;-75
2023/05/24 20:39:22;;;;;;;;;9.33;7.33;;;;;;;;6371661;22;45194;-74
2023/05/24 20:41:47;;;;;;;;;7.33;6.00;;;;;;;;6344544;22;45171;-75
2023/05/24 20:44:12;;;;;;;;;8.33;7.00;;;;;;;;6372862;22;45291;-74
2023/05/24 20:46:37;;;;;;;;;8.00;6.33;;;;;;;;6374169;22;45202;-74
2023/05/24 20:49:03;;;;;;;;;10.00;8.33;;;;;;;;6374970;22;45190;-74
2023/05/24 20:51:28;;;;;;;;;11.00;9.00;;;;;;;;6375140;22;45073;-76
2023/05/24 20:53:54;;;;;;;;;8.67;7.33;;;;;;;;6345692;22;45342;-75
2023/05/24 20:56:21;;;;;;;;;8.33;6.67;;;;;;;;6373651;22;45302;-73
